createdAt,value
2023-03-27T00:01:16.311Z,98940.25
2023-03-27T00:04:20.057Z,98937.97
2023-03-27T00:07:22.857Z,98930.25
2023-03-27T00:10:26.572Z,98923.84
2023-03-27T00:13:30.104Z,98919.13
2023-03-27T00:16:33.493Z,98917.34
2023-03-27T00:19:36.601Z,98907.13
2023-03-27T00:22:39.663Z,98903.78
2023-03-27T00:25:42.917Z,98903.44
2023-03-27T00:28:46.397Z,98896.72
2023-03-27T00:31:49.898Z,98888.91
2023-03-27T00:34:52.463Z,98898.00
2023-03-27T00:37:57.247Z,98891.13
2023-03-27T00:41:01.517Z,98887.88
2023-03-27T00:44:34.519Z,98879.94
2023-03-27T00:47:39.748Z,98873.81
2023-03-27T00:50:44.927Z,98868.53
2023-03-27T00:53:48.934Z,98862.50
2023-03-27T00:56:56.826Z,98861.56
2023-03-27T01:00:07.653Z,98849.22
2023-03-27T01:03:16.425Z,98841.69
2023-03-27T01:06:20.777Z,98846.81
2023-03-27T01:09:26.543Z,98839.53
2023-03-27T01:13:00.286Z,98831.41
2023-03-27T01:16:41.681Z,98826.41
2023-03-27T01:20:14.231Z,98822.47
2023-03-27T01:23:35.743Z,98814.44
2023-03-27T01:26:58.565Z,98813.16
2023-03-27T01:30:10.825Z,98800.19
2023-03-27T01:33:56.456Z,98802.56
2023-03-27T01:37:18.063Z,98795.03
2023-03-27T01:40:38.539Z,98804.41
2023-03-27T01:43:46.809Z,98784.94
2023-03-27T01:47:04.305Z,98797.41
2023-03-27T01:50:27.336Z,98796.16
2023-03-27T01:53:37.732Z,98780.75
2023-03-27T01:56:53.533Z,98786.66
2023-03-27T02:00:17.271Z,98765.66
2023-03-27T02:03:29.331Z,98774.75
2023-03-27T02:06:36.924Z,98775.72
2023-03-27T02:09:50.884Z,98779.78
2023-03-27T02:13:01.646Z,98781.88
2023-03-27T02:16:08.398Z,98778.44
2023-03-27T02:19:28.086Z,98775.41
2023-03-27T02:22:38.131Z,98783.16
2023-03-27T02:25:46.682Z,98780.97
2023-03-27T02:29:02.373Z,98779.72
2023-03-27T02:32:19.806Z,98773.03
2023-03-27T02:35:29.547Z,98757.06
2023-03-27T02:38:38.360Z,98732.16
2023-03-27T02:41:48.109Z,98728.53
2023-03-27T02:45:16.575Z,98715.78
2023-03-27T02:48:31.805Z,98700.63
2023-03-27T02:51:43.570Z,98710.25
2023-03-27T02:54:53.781Z,98700.19
2023-03-27T02:58:00.898Z,98691.91
2023-03-27T03:01:22.435Z,98695.88
2023-03-27T03:05:00.598Z,98682.41
2023-03-27T03:08:14.802Z,98680.72
2023-03-27T03:11:18.922Z,98682.75
2023-03-27T03:14:30.636Z,98678.34
2023-03-27T03:17:33.250Z,98679.16
2023-03-27T03:20:36.043Z,98681.41
2023-03-27T03:23:41.626Z,98685.38
2023-03-27T03:27:05.725Z,98681.09
2023-03-27T03:30:19.401Z,98686.06
2023-03-27T03:33:32.094Z,98675.66
2023-03-27T03:36:36.234Z,98680.81
2023-03-27T03:39:38.915Z,98678.38
2023-03-27T03:42:46.388Z,98683.31
2023-03-27T03:45:49.948Z,98677.09
2023-03-27T03:48:53.270Z,98670.88
2023-03-27T03:52:03.785Z,98680.38
2023-03-27T03:55:09.975Z,98669.31
2023-03-27T03:58:13.563Z,98671.69
2023-03-27T04:01:22.245Z,98671.19
2023-03-27T04:04:30.970Z,98670.66
2023-03-27T04:07:42.713Z,98660.38
2023-03-27T04:11:00.990Z,98662.84
2023-03-27T04:14:36.489Z,98669.38
2023-03-27T04:17:50.916Z,98673.78
2023-03-27T04:20:54.988Z,98675.94
2023-03-27T04:24:02.763Z,98669.03
2023-03-27T04:27:21.445Z,98665.19
2023-03-27T04:30:38.636Z,98671.41
2023-03-27T04:33:52.369Z,98662.78
2023-03-27T04:37:14.713Z,98665.50
2023-03-27T04:40:30.846Z,98670.91
2023-03-27T04:43:40.211Z,98667.38
2023-03-27T04:46:44.941Z,98657.81
2023-03-27T04:49:51.062Z,98658.38
2023-03-27T04:53:00.680Z,98656.22
2023-03-27T04:56:11.218Z,98660.28
2023-03-27T04:59:18.812Z,98655.00
2023-03-27T05:02:33.749Z,98651.59
2023-03-27T05:05:41.516Z,98645.75
2023-03-27T05:08:44.978Z,98644.16
2023-03-27T05:11:58.894Z,98636.94
2023-03-27T05:15:06.308Z,98634.81
2023-03-27T05:18:16.182Z,98636.19
2023-03-27T05:21:19.359Z,98633.31
2023-03-27T05:24:22.751Z,98637.13
2023-03-27T05:27:27.544Z,98629.59
2023-03-27T05:30:33.813Z,98635.59
2023-03-27T05:33:52.650Z,98630.84
2023-03-27T05:37:11.238Z,98623.50
2023-03-27T05:40:42.219Z,98626.31
2023-03-27T05:43:46.454Z,98623.38
2023-03-27T05:46:50.734Z,98616.16
2023-03-27T05:50:02.198Z,98616.38
2023-03-27T05:53:11.213Z,98602.06
2023-03-27T05:56:23.068Z,98613.13
2023-03-27T05:59:55.949Z,98604.19
2023-03-27T06:03:15.600Z,98605.16
2023-03-27T06:06:49.900Z,98605.91
2023-03-27T06:09:54.495Z,98600.59
2023-03-27T06:13:27.364Z,98593.50
2023-03-27T06:16:43.372Z,98594.19
2023-03-27T06:20:21.665Z,98589.22
2023-03-27T06:23:31.990Z,98591.13
2023-03-27T06:26:34.865Z,98594.41
2023-03-27T06:29:39.670Z,98599.81
2023-03-27T06:32:47.087Z,98592.47
2023-03-27T06:35:53.755Z,98590.34
2023-03-27T06:39:06.481Z,98590.19
2023-03-27T06:42:11.563Z,98593.13
2023-03-27T06:45:52.595Z,98588.84
2023-03-27T06:54:06.992Z,98586.41
2023-03-27T06:57:49.782Z,98590.19
2023-03-27T07:00:57.811Z,98582.41
2023-03-27T07:04:28.759Z,98576.13
2023-03-27T07:08:22.334Z,98590.47
2023-03-27T07:11:40.396Z,98579.78
2023-03-27T07:14:45.917Z,98588.88
2023-03-27T07:18:01.462Z,98597.81
2023-03-27T07:21:05.236Z,98600.59
2023-03-27T07:24:08.873Z,98599.25
2023-03-27T07:27:31.280Z,98600.50
2023-03-27T07:31:16.763Z,98595.66
2023-03-27T07:35:10.102Z,98594.84
2023-03-27T07:38:42.672Z,98598.69
2023-03-27T07:41:55.611Z,98606.88
2023-03-27T07:45:21.899Z,98605.47
2023-03-27T07:48:36.554Z,98613.13
2023-03-27T07:51:40.411Z,98619.28
2023-03-27T07:54:44.370Z,98615.38
2023-03-27T07:58:00.710Z,98619.66
2023-03-27T08:01:06.431Z,98616.81
2023-03-27T08:04:11.173Z,98606.59
2023-03-27T08:07:16.865Z,98623.44
2023-03-27T08:10:20.962Z,98614.81
2023-03-27T08:13:36.429Z,98609.44
2023-03-27T08:16:43.685Z,98613.91
2023-03-27T08:19:49.150Z,98607.88
2023-03-27T08:22:54.518Z,98629.13
2023-03-27T08:26:18.200Z,98629.78
2023-03-27T08:29:34.119Z,98638.63
2023-03-27T08:32:40.626Z,98626.56
2023-03-27T08:35:57.091Z,98634.72
2023-03-27T08:39:24.695Z,98639.97
2023-03-27T08:43:14.109Z,98625.63
2023-03-27T08:46:37.901Z,98640.53
2023-03-27T08:49:52.677Z,98639.22
2023-03-27T08:53:10.050Z,98640.75
2023-03-27T08:56:15.714Z,98639.53
2023-03-27T08:59:24.861Z,98646.94
2023-03-27T09:02:51.511Z,98640.66
2023-03-27T09:06:07.527Z,98649.31
2023-03-27T09:09:22.198Z,98649.69
2023-03-27T09:12:50.961Z,98654.00
2023-03-27T09:16:37.150Z,98668.31
2023-03-27T09:19:56.514Z,98667.72
2023-03-27T09:23:16.224Z,98665.16
2023-03-27T09:26:44.799Z,98673.13
2023-03-27T09:30:30.980Z,98678.34
2023-03-27T09:34:26.908Z,98680.69
2023-03-27T09:38:59.080Z,98684.41
2023-03-27T09:42:49.351Z,98697.28
2023-03-27T09:46:33.761Z,98696.56
2023-03-27T09:50:28.237Z,98700.25
2023-03-27T09:54:03.893Z,98709.53
2023-03-27T09:57:12.866Z,98714.06
2023-03-27T10:00:37.542Z,98716.06
2023-03-27T10:03:49.160Z,98711.09
2023-03-27T10:07:07.970Z,98719.38
2023-03-27T10:10:37.907Z,98719.34
2023-03-27T10:13:46.806Z,98724.47
2023-03-27T10:16:53.650Z,98724.44
2023-03-27T10:20:14.607Z,98724.16
2023-03-27T10:23:29.885Z,98724.88
2023-03-27T10:26:37.411Z,98725.63
2023-03-27T10:29:41.321Z,98730.16
2023-03-27T10:32:50.030Z,98737.94
2023-03-27T10:36:12.383Z,98733.72
2023-03-27T10:39:20.612Z,98743.34
2023-03-27T10:43:04.747Z,98738.47
2023-03-27T10:46:30.493Z,98740.78
2023-03-27T10:49:59.028Z,98746.59
2023-03-27T10:53:37.474Z,98744.84
2023-03-27T10:56:49.133Z,98749.84
2023-03-27T11:00:19.598Z,98753.00
2023-03-27T11:04:11.489Z,98746.56
2023-03-27T11:07:39.433Z,98756.31
2023-03-27T11:11:11.182Z,98760.97
2023-03-27T11:14:52.275Z,98755.13
2023-03-27T11:18:14.795Z,98761.81
2023-03-27T11:21:39.408Z,98764.78
2023-03-27T11:24:42.416Z,98761.75
2023-03-27T11:27:58.529Z,98759.31
2023-03-27T11:31:14.425Z,98761.69
2023-03-27T11:34:40.256Z,98765.09
2023-03-27T11:38:28.909Z,98767.69
2023-03-27T11:41:33.006Z,98766.25
2023-03-27T11:44:39.248Z,98761.66
2023-03-27T11:48:35.404Z,98765.91
2023-03-27T11:51:41.832Z,98774.69
2023-03-27T11:55:13.109Z,98767.44
2023-03-27T11:58:57.927Z,98767.16
2023-03-27T12:03:37.093Z,98769.06
2023-03-27T12:07:37.075Z,98773.81
2023-03-27T12:11:23.565Z,98770.81
2023-03-27T12:14:48.769Z,98778.94
2023-03-27T12:17:58.284Z,98774.47
2023-03-27T12:21:15.842Z,98777.59
2023-03-27T12:24:57.067Z,98796.09
2023-03-27T12:29:23.651Z,98796.25
2023-03-27T12:33:02.268Z,98792.78
2023-03-27T12:37:42.056Z,98802.81
2023-03-27T12:41:15.945Z,98816.41
2023-03-27T12:45:19.625Z,98821.00
2023-03-27T12:48:29.290Z,98820.22
2023-03-27T12:51:51.112Z,98828.88
2023-03-27T12:55:25.398Z,98837.19
2023-03-27T12:59:09.660Z,98850.03
2023-03-27T13:03:30.328Z,98853.28
2023-03-27T13:06:37.713Z,98870.69
2023-03-27T13:10:08.503Z,98876.09
2023-03-27T13:13:30.390Z,98888.47
2023-03-27T13:16:59.410Z,98897.38
2023-03-27T13:20:45.066Z,98898.19
2023-03-27T13:23:54.657Z,98902.28
2023-03-27T13:27:21.798Z,98906.06
2023-03-27T13:30:44.098Z,98954.19
2023-03-27T13:34:19.529Z,98935.34
2023-03-27T13:37:41.939Z,98963.19
2023-03-27T13:40:47.715Z,98927.31
2023-03-27T13:43:56.575Z,98988.47
2023-03-27T13:47:36.585Z,98982.25
2023-03-27T13:51:10.847Z,98978.97
2023-03-27T13:54:35.643Z,99001.31
2023-03-27T13:58:16.013Z,99014.97
2023-03-27T14:01:40.404Z,99017.63
2023-03-27T14:04:59.567Z,99053.81
2023-03-27T14:08:56.009Z,99057.56
2023-03-27T14:12:32.438Z,99067.13
2023-03-27T14:16:31.956Z,99088.38
2023-03-27T14:20:15.707Z,99105.94
2023-03-27T14:23:33.907Z,99113.59
2023-03-27T14:26:46.298Z,99061.94
2023-03-27T14:30:15.780Z,99132.81
2023-03-27T14:33:24.944Z,99159.03
2023-03-27T14:36:34.253Z,99148.22
2023-03-27T14:39:40.099Z,99182.50
2023-03-27T14:42:51.301Z,99165.22
2023-03-27T14:46:06.448Z,99154.84
2023-03-27T14:49:14.158Z,99170.84
2023-03-27T14:52:33.412Z,99190.84
2023-03-27T14:56:05.667Z,99189.00
2023-03-27T14:59:44.101Z,99206.81
2023-03-27T15:02:52.796Z,99193.53
2023-03-27T15:05:57.625Z,99225.41
2023-03-27T15:09:14.453Z,99263.44
2023-03-27T15:12:37.608Z,99242.38
2023-03-27T15:15:50.235Z,99244.13
2023-03-27T15:19:12.485Z,99251.16
2023-03-27T15:22:31.009Z,99264.66
2023-03-27T15:25:39.054Z,99300.28
2023-03-27T15:29:08.210Z,99321.97
2023-03-27T15:32:18.953Z,99304.81
2023-03-27T15:35:34.528Z,99304.34
2023-03-27T15:38:39.066Z,99315.59
2023-03-27T15:41:43.321Z,99340.28
2023-03-27T15:44:46.648Z,99351.22
2023-03-27T15:48:05.646Z,99351.56
2023-03-27T15:51:18.316Z,99368.47
2023-03-27T15:54:35.503Z,99378.63
2023-03-27T15:57:39.271Z,99385.41
2023-03-27T16:00:50.200Z,99409.66
2023-03-27T16:03:56.147Z,99408.97
2023-03-27T16:07:11.418Z,99413.19
2023-03-27T16:10:29.152Z,99467.44
2023-03-27T16:13:56.188Z,99447.22
2023-03-27T16:17:10.996Z,99462.53
2023-03-27T16:20:16.101Z,99492.19
2023-03-27T16:23:19.359Z,99486.47
2023-03-27T16:26:26.613Z,99493.81
2023-03-27T16:29:29.271Z,99509.66
2023-03-27T16:32:32.617Z,99486.66
2023-03-27T16:35:35.248Z,99519.66
2023-03-27T16:38:40.859Z,99513.25
2023-03-27T16:41:43.491Z,99531.44
2023-03-27T16:44:47.196Z,99556.88
2023-03-27T16:47:53.139Z,99544.50
2023-03-27T16:50:56.608Z,99551.44
2023-03-27T16:53:59.988Z,99564.50
2023-03-27T16:57:04.131Z,99555.91
2023-03-27T17:00:12.159Z,99571.44
2023-03-27T17:03:16.844Z,99570.38
2023-03-27T17:06:20.234Z,99599.63
2023-03-27T17:09:23.264Z,99612.84
2023-03-27T17:12:28.893Z,99623.00
2023-03-27T17:15:36.194Z,99628.72
2023-03-27T17:18:39.695Z,99659.19
2023-03-27T17:21:43.107Z,99650.44
2023-03-27T17:24:56.184Z,99670.31
2023-03-27T17:27:59.744Z,99674.53
2023-03-27T17:31:05.322Z,99681.88
2023-03-27T17:34:08.283Z,99695.03
2023-03-27T17:37:12.601Z,99695.13
2023-03-27T17:40:16.438Z,99688.44
2023-03-27T17:43:19.801Z,99689.81
2023-03-27T17:46:22.391Z,99696.28
2023-03-27T17:49:25.076Z,99688.53
2023-03-27T17:52:28.617Z,99699.28
2023-03-27T17:55:31.165Z,99724.81
2023-03-27T17:58:35.211Z,99733.66
2023-03-27T18:01:39.469Z,99723.78
2023-03-27T18:04:42.399Z,99736.13
2023-03-27T18:07:45.747Z,99734.53
2023-03-27T18:10:50.780Z,99760.56
2023-03-27T18:13:53.763Z,99745.53
2023-03-27T18:16:56.505Z,99745.28
2023-03-27T18:19:59.043Z,99767.00
2023-03-27T18:23:02.711Z,99758.44
2023-03-27T18:26:07.468Z,99771.56
2023-03-27T18:29:10.748Z,99760.31
2023-03-27T18:32:14.136Z,99765.69
2023-03-27T18:35:19.664Z,99771.56
2023-03-27T18:38:25.172Z,99748.75
2023-03-27T18:41:27.819Z,99760.84
2023-03-27T18:44:30.330Z,99764.34
2023-03-27T18:47:34.747Z,99763.81
2023-03-27T18:50:38.198Z,99755.78
2023-03-27T18:53:41.058Z,99748.25
2023-03-27T18:56:43.727Z,99761.38
2023-03-27T18:59:49.452Z,99767.56
2023-03-27T19:02:52.794Z,99771.88
2023-03-27T19:06:01.312Z,99781.25
2023-03-27T19:09:04.101Z,99779.38
2023-03-27T19:12:08.504Z,99785.53
2023-03-27T19:15:31.418Z,99809.97
2023-03-27T19:18:52.856Z,99794.13
2023-03-27T19:22:14.586Z,99805.41
2023-03-27T19:25:21.872Z,99817.97
2023-03-27T19:28:24.503Z,99804.06
2023-03-27T19:31:28.414Z,99817.44
2023-03-27T19:34:42.405Z,99823.38
2023-03-27T19:37:47.684Z,99830.91
2023-03-27T19:40:51.743Z,99834.38
2023-03-27T19:43:54.381Z,99853.72
2023-03-27T19:46:57.213Z,99858.81
2023-03-27T19:49:59.950Z,99867.94
2023-03-27T19:53:23.773Z,99875.72
2023-03-27T19:56:27.498Z,99865.25
2023-03-27T19:59:31.056Z,99884.56
2023-03-27T20:02:33.955Z,99878.38
2023-03-27T20:05:39.084Z,99876.25
2023-03-27T20:08:42.467Z,99888.06
2023-03-27T20:11:49.579Z,99883.44
2023-03-27T20:15:02.361Z,99870.34
2023-03-27T20:18:18.307Z,99872.50
2023-03-27T20:21:25.612Z,99863.38
2023-03-27T20:24:29.280Z,99874.09
2023-03-27T20:27:35.874Z,99866.31
2023-03-27T20:30:40.453Z,99882.69
2023-03-27T20:33:44.007Z,99878.66
2023-03-27T20:36:47.470Z,99898.25
2023-03-27T20:40:15.860Z,99900.06
2023-03-27T20:43:22.939Z,99910.84
2023-03-27T20:46:30.507Z,99904.69
2023-03-27T20:49:40.826Z,99918.38
2023-03-27T20:52:48.355Z,99927.44
2023-03-27T20:56:00.208Z,99919.72
2023-03-27T20:59:03.611Z,99957.81
2023-03-27T21:02:07.160Z,99934.50
2023-03-27T21:05:11.117Z,99937.97
2023-03-27T21:08:15.518Z,99933.41
2023-03-27T21:11:18.546Z,99950.53
2023-03-27T21:14:22.415Z,99939.22
2023-03-27T21:17:25.572Z,99938.59
2023-03-27T21:20:28.310Z,99960.31
2023-03-27T21:23:31.067Z,99957.03
2023-03-27T21:26:34.202Z,99972.13
2023-03-27T21:29:37.565Z,99954.22
2023-03-27T21:32:42.281Z,99970.03
2023-03-27T21:35:47.059Z,99966.56
2023-03-27T21:38:50.022Z,99979.16
2023-03-27T21:41:52.867Z,99970.03
2023-03-27T21:44:57.369Z,99972.75
2023-03-27T21:48:00.842Z,100002.16
2023-03-27T21:51:08.357Z,100001.69
2023-03-27T21:54:10.945Z,100014.56
2023-03-27T21:57:14.847Z,100005.91
2023-03-27T22:00:19.645Z,100019.66
2023-03-27T22:03:23.836Z,100027.13
2023-03-27T22:06:28.963Z,100030.28
2023-03-27T22:09:32.790Z,100024.44
2023-03-27T22:12:36.095Z,100028.66
2023-03-27T22:15:39.727Z,100029.84
2023-03-27T22:18:44.234Z,100040.22
2023-03-27T22:21:47.652Z,100049.69
2023-03-27T22:24:50.568Z,100057.88
2023-03-27T22:27:53.963Z,100053.13
2023-03-27T22:30:59.501Z,100064.66
2023-03-27T22:34:04.642Z,100071.31
2023-03-27T22:37:07.425Z,100070.22
2023-03-27T22:40:12.187Z,100073.06
2023-03-27T22:43:23.092Z,100077.16
2023-03-27T22:46:26.424Z,100084.06
2023-03-27T22:49:29.147Z,100083.50
2023-03-27T22:52:33.125Z,100079.91
2023-03-27T22:55:36.110Z,100102.88
2023-03-27T22:58:40.413Z,100098.84
2023-03-27T23:01:43.400Z,100096.66
2023-03-27T23:04:48.523Z,100102.81
2023-03-27T23:07:51.119Z,100091.84
2023-03-27T23:11:05.596Z,100090.63
2023-03-27T23:14:08.492Z,100107.38
2023-03-27T23:17:12.068Z,100110.16
2023-03-27T23:20:16.572Z,100118.19
2023-03-27T23:23:19.978Z,100143.03
2023-03-27T23:26:23.669Z,100133.69
2023-03-27T23:29:27.031Z,100127.22
2023-03-27T23:32:30.381Z,100138.91
2023-03-27T23:35:32.986Z,100130.66
2023-03-27T23:38:36.156Z,100147.84
2023-03-27T23:41:39.498Z,100165.50
2023-03-27T23:44:42.272Z,100154.94
2023-03-27T23:47:44.793Z,100154.00
2023-03-27T23:50:52.102Z,100163.66
2023-03-27T23:53:55.462Z,100170.75
2023-03-27T23:56:58.074Z,100174.53
